sensor_id;sensor_type;location;lat;lon;timestamp;P1;durP1;ratioP1;P2;durP2;ratioP2
44438;SDS011;30145;48.874;10.186;2024-02-26T00:00:14;3.10;;;2.77;;
44438;SDS011;30145;48.874;10.186;2024-02-26T00:02:42;3.40;;;2.77;;
44438;SDS011;30145;48.874;10.186;2024-02-26T00:05:09;3.57;;;2.80;;
44438;SDS011;30145;48.874;10.186;2024-02-26T00:07:36;3.93;;;2.70;;
44438;SDS011;30145;48.874;10.186;2024-02-26T00:10:04;3.87;;;2.90;;
44438;SDS011;30145;48.874;10.186;2024-02-26T00:12:32;2.77;;;2.40;;
44438;SDS011;30145;48.874;10.186;2024-02-26T00:14:59;2.83;;;2.20;;
44438;SDS011;30145;48.874;10.186;2024-02-26T00:17:26;3.17;;;2.40;;
44438;SDS011;30145;48.874;10.186;2024-02-26T00:19:53;2.83;;;2.40;;
44438;SDS011;30145;48.874;10.186;2024-02-26T00:22:20;4.67;;;2.60;;
44438;SDS011;30145;48.874;10.186;2024-02-26T00:24:48;3.80;;;3.00;;
44438;SDS011;30145;48.874;10.186;2024-02-26T00:27:15;3.50;;;2.70;;
44438;SDS011;30145;48.874;10.186;2024-02-26T00:29:42;3.40;;;2.43;;
44438;SDS011;30145;48.874;10.186;2024-02-26T00:32:09;4.20;;;2.60;;
44438;SDS011;30145;48.874;10.186;2024-02-26T00:34:36;3.97;;;2.70;;
44438;SDS011;30145;48.874;10.186;2024-02-26T00:37:03;3.60;;;2.80;;
44438;SDS011;30145;48.874;10.186;2024-02-26T00:39:31;3.03;;;2.70;;
44438;SDS011;30145;48.874;10.186;2024-02-26T00:41:58;3.90;;;2.67;;
44438;SDS011;30145;48.874;10.186;2024-02-26T00:44:25;3.40;;;2.47;;
44438;SDS011;30145;48.874;10.186;2024-02-26T00:46:52;4.90;;;3.30;;
44438;SDS011;30145;48.874;10.186;2024-02-26T00:49:20;5.83;;;3.37;;
44438;SDS011;30145;48.874;10.186;2024-02-26T00:51:47;6.80;;;3.63;;
44438;SDS011;30145;48.874;10.186;2024-02-26T00:54:14;6.00;;;3.00;;
44438;SDS011;30145;48.874;10.186;2024-02-26T00:56:42;5.10;;;3.53;;
44438;SDS011;30145;48.874;10.186;2024-02-26T00:59:09;4.97;;;3.30;;
44438;SDS011;30145;48.874;10.186;2024-02-26T01:01:36;4.87;;;3.30;;
44438;SDS011;30145;48.874;10.186;2024-02-26T01:04:04;5.60;;;3.10;;
44438;SDS011;30145;48.874;10.186;2024-02-26T01:06:31;3.40;;;2.90;;
44438;SDS011;30145;48.874;10.186;2024-02-26T01:08:58;3.40;;;2.90;;
44438;SDS011;30145;48.874;10.186;2024-02-26T01:11:26;7.00;;;4.83;;
44438;SDS011;30145;48.874;10.186;2024-02-26T01:13:53;3.87;;;2.87;;
44438;SDS011;30145;48.874;10.186;2024-02-26T01:16:23;4.10;;;2.83;;
44438;SDS011;30145;48.874;10.186;2024-02-26T01:18:50;6.73;;;3.20;;
44438;SDS011;30145;48.874;10.186;2024-02-26T01:21:17;4.30;;;3.10;;
44438;SDS011;30145;48.874;10.186;2024-02-26T01:23:45;3.20;;;2.90;;
44438;SDS011;30145;48.874;10.186;2024-02-26T01:26:12;4.83;;;3.10;;
44438;SDS011;30145;48.874;10.186;2024-02-26T01:28:40;4.67;;;2.80;;
44438;SDS011;30145;48.874;10.186;2024-02-26T01:31:09;5.63;;;3.07;;
44438;SDS011;30145;48.874;10.186;2024-02-26T01:33:38;6.10;;;3.73;;
44438;SDS011;30145;48.874;10.186;2024-02-26T01:36:05;4.10;;;2.73;;
44438;SDS011;30145;48.874;10.186;2024-02-26T01:38:34;4.27;;;3.13;;
44438;SDS011;30145;48.874;10.186;2024-02-26T01:41:02;4.33;;;3.30;;
44438;SDS011;30145;48.874;10.186;2024-02-26T01:43:30;4.17;;;2.63;;
44438;SDS011;30145;48.874;10.186;2024-02-26T01:45:58;3.87;;;2.97;;
44438;SDS011;30145;48.874;10.186;2024-02-26T01:48:26;4.63;;;2.90;;
44438;SDS011;30145;48.874;10.186;2024-02-26T01:50:54;3.80;;;2.23;;
44438;SDS011;30145;48.874;10.186;2024-02-26T01:53:22;3.00;;;2.47;;
44438;SDS011;30145;48.874;10.186;2024-02-26T01:55:49;4.33;;;2.93;;
44438;SDS011;30145;48.874;10.186;2024-02-26T01:58:17;4.40;;;3.37;;
44438;SDS011;30145;48.874;10.186;2024-02-26T02:00:45;3.33;;;2.50;;
44438;SDS011;30145;48.874;10.186;2024-02-26T02:03:12;3.53;;;2.70;;
44438;SDS011;30145;48.874;10.186;2024-02-26T02:05:40;4.80;;;3.50;;
44438;SDS011;30145;48.874;10.186;2024-02-26T02:08:10;4.00;;;2.77;;
44438;SDS011;30145;48.874;10.186;2024-02-26T02:10:41;4.47;;;2.80;;
44438;SDS011;30145;48.874;10.186;2024-02-26T02:13:10;3.30;;;3.00;;
44438;SDS011;30145;48.874;10.186;2024-02-26T02:15:39;4.27;;;3.40;;
44438;SDS011;30145;48.874;10.186;2024-02-26T02:18:06;5.20;;;3.60;;
44438;SDS011;30145;48.874;10.186;2024-02-26T02:20:34;5.47;;;3.67;;
44438;SDS011;30145;48.874;10.186;2024-02-26T02:23:01;6.93;;;3.87;;
44438;SDS011;30145;48.874;10.186;2024-02-26T02:25:29;4.43;;;3.10;;
44438;SDS011;30145;48.874;10.186;2024-02-26T02:27:56;3.73;;;3.10;;
44438;SDS011;30145;48.874;10.186;2024-02-26T02:30:27;5.33;;;3.63;;
44438;SDS011;30145;48.874;10.186;2024-02-26T02:32:57;4.00;;;3.13;;
44438;SDS011;30145;48.874;10.186;2024-02-26T02:35:25;4.17;;;3.20;;
44438;SDS011;30145;48.874;10.186;2024-02-26T02:37:52;3.97;;;2.70;;
44438;SDS011;30145;48.874;10.186;2024-02-26T02:40:19;4.47;;;3.63;;
44438;SDS011;30145;48.874;10.186;2024-02-26T02:42:47;4.33;;;3.40;;
44438;SDS011;30145;48.874;10.186;2024-02-26T02:45:14;3.87;;;3.20;;
44438;SDS011;30145;48.874;10.186;2024-02-26T02:47:43;4.00;;;3.60;;
44438;SDS011;30145;48.874;10.186;2024-02-26T02:50:10;5.03;;;3.30;;
44438;SDS011;30145;48.874;10.186;2024-02-26T02:52:37;5.73;;;3.70;;
44438;SDS011;30145;48.874;10.186;2024-02-26T02:55:04;5.23;;;3.90;;
44438;SDS011;30145;48.874;10.186;2024-02-26T02:57:32;5.30;;;3.80;;
44438;SDS011;30145;48.874;10.186;2024-02-26T02:59:59;4.10;;;3.70;;
44438;SDS011;30145;48.874;10.186;2024-02-26T03:02:26;6.07;;;4.00;;
44438;SDS011;30145;48.874;10.186;2024-02-26T03:04:54;4.67;;;3.50;;
44438;SDS011;30145;48.874;10.186;2024-02-26T03:07:22;4.47;;;3.47;;
44438;SDS011;30145;48.874;10.186;2024-02-26T03:09:49;5.97;;;4.20;;
44438;SDS011;30145;48.874;10.186;2024-02-26T03:12:16;6.07;;;4.07;;
44438;SDS011;30145;48.874;10.186;2024-02-26T03:14:44;4.93;;;4.00;;
44438;SDS011;30145;48.874;10.186;2024-02-26T03:17:11;5.17;;;3.80;;
44438;SDS011;30145;48.874;10.186;2024-02-26T03:19:39;5.43;;;4.00;;
44438;SDS011;30145;48.874;10.186;2024-02-26T03:22:06;6.63;;;3.90;;
44438;SDS011;30145;48.874;10.186;2024-02-26T03:24:34;6.60;;;4.43;;
44438;SDS011;30145;48.874;10.186;2024-02-26T03:27:01;5.03;;;4.20;;
44438;SDS011;30145;48.874;10.186;2024-02-26T03:29:28;6.47;;;4.37;;
44438;SDS011;30145;48.874;10.186;2024-02-26T03:31:55;4.77;;;4.27;;
44438;SDS011;30145;48.874;10.186;2024-02-26T03:34:22;6.30;;;4.47;;
44438;SDS011;30145;48.874;10.186;2024-02-26T03:36:50;6.20;;;4.20;;
44438;SDS011;30145;48.874;10.186;2024-02-26T03:39:18;5.00;;;4.03;;
44438;SDS011;30145;48.874;10.186;2024-02-26T03:41:45;6.27;;;4.53;;
44438;SDS011;30145;48.874;10.186;2024-02-26T03:44:12;6.40;;;4.60;;
44438;SDS011;30145;48.874;10.186;2024-02-26T03:46:39;5.40;;;4.30;;
44438;SDS011;30145;48.874;10.186;2024-02-26T03:49:06;6.43;;;4.27;;
44438;SDS011;30145;48.874;10.186;2024-02-26T03:51:33;6.67;;;4.60;;
44438;SDS011;30145;48.874;10.186;2024-02-26T03:54:00;8.43;;;5.00;;
44438;SDS011;30145;48.874;10.186;2024-02-26T03:56:27;9.00;;;4.67;;
44438;SDS011;30145;48.874;10.186;2024-02-26T03:58:54;5.27;;;4.53;;
44438;SDS011;30145;48.874;10.186;2024-02-26T04:01:21;5.47;;;4.23;;
44438;SDS011;30145;48.874;10.186;2024-02-26T04:03:49;6.10;;;4.67;;
44438;SDS011;30145;48.874;10.186;2024-02-26T04:06:16;6.13;;;4.60;;
44438;SDS011;30145;48.874;10.186;2024-02-26T04:08:46;7.83;;;4.40;;
44438;SDS011;30145;48.874;10.186;2024-02-26T04:11:14;6.50;;;5.00;;
44438;SDS011;30145;48.874;10.186;2024-02-26T04:13:44;8.83;;;5.20;;
44438;SDS011;30145;48.874;10.186;2024-02-26T04:16:16;7.83;;;4.60;;
44438;SDS011;30145;48.874;10.186;2024-02-26T04:18:43;7.93;;;5.20;;
44438;SDS011;30145;48.874;10.186;2024-02-26T04:21:10;7.13;;;5.20;;
44438;SDS011;30145;48.874;10.186;2024-02-26T04:23:37;6.80;;;4.63;;
44438;SDS011;30145;48.874;10.186;2024-02-26T04:26:04;7.20;;;5.30;;
44438;SDS011;30145;48.874;10.186;2024-02-26T04:28:31;9.33;;;6.10;;
44438;SDS011;30145;48.874;10.186;2024-02-26T04:30:58;7.13;;;4.63;;
44438;SDS011;30145;48.874;10.186;2024-02-26T04:33:25;8.23;;;4.97;;
44438;SDS011;30145;48.874;10.186;2024-02-26T04:35:52;9.80;;;4.87;;
44438;SDS011;30145;48.874;10.186;2024-02-26T04:38:20;7.97;;;4.57;;
44438;SDS011;30145;48.874;10.186;2024-02-26T04:40:47;7.83;;;4.93;;
44438;SDS011;30145;48.874;10.186;2024-02-26T04:43:14;5.57;;;4.13;;
44438;SDS011;30145;48.874;10.186;2024-02-26T04:45:41;6.43;;;4.73;;
44438;SDS011;30145;48.874;10.186;2024-02-26T04:48:08;6.57;;;4.30;;
44438;SDS011;30145;48.874;10.186;2024-02-26T04:50:35;6.53;;;4.13;;
44438;SDS011;30145;48.874;10.186;2024-02-26T04:53:02;24.13;;;12.60;;
44438;SDS011;30145;48.874;10.186;2024-02-26T04:55:29;11.40;;;7.10;;
44438;SDS011;30145;48.874;10.186;2024-02-26T04:57:56;8.03;;;5.53;;
44438;SDS011;30145;48.874;10.186;2024-02-26T05:00:23;7.00;;;4.97;;
44438;SDS011;30145;48.874;10.186;2024-02-26T05:02:50;7.27;;;5.50;;
44438;SDS011;30145;48.874;10.186;2024-02-26T05:05:17;6.83;;;5.10;;
44438;SDS011;30145;48.874;10.186;2024-02-26T05:07:45;7.57;;;5.07;;
44438;SDS011;30145;48.874;10.186;2024-02-26T05:10:12;6.87;;;5.57;;
44438;SDS011;30145;48.874;10.186;2024-02-26T05:12:39;6.67;;;4.77;;
44438;SDS011;30145;48.874;10.186;2024-02-26T05:15:09;9.20;;;5.10;;
44438;SDS011;30145;48.874;10.186;2024-02-26T05:17:36;6.97;;;4.77;;
44438;SDS011;30145;48.874;10.186;2024-02-26T05:20:05;10.17;;;4.97;;
44438;SDS011;30145;48.874;10.186;2024-02-26T05:22:34;8.37;;;5.40;;
44438;SDS011;30145;48.874;10.186;2024-02-26T05:25:03;6.10;;;4.63;;
44438;SDS011;30145;48.874;10.186;2024-02-26T05:27:30;8.77;;;5.80;;
44438;SDS011;30145;48.874;10.186;2024-02-26T05:29:57;7.27;;;5.43;;
44438;SDS011;30145;48.874;10.186;2024-02-26T05:32:24;6.00;;;4.60;;
44438;SDS011;30145;48.874;10.186;2024-02-26T05:34:51;7.27;;;5.43;;
44438;SDS011;30145;48.874;10.186;2024-02-26T05:37:18;7.00;;;5.13;;
44438;SDS011;30145;48.874;10.186;2024-02-26T05:39:45;6.17;;;4.83;;
44438;SDS011;30145;48.874;10.186;2024-02-26T05:42:12;8.87;;;5.27;;
44438;SDS011;30145;48.874;10.186;2024-02-26T05:44:39;8.73;;;6.07;;
44438;SDS011;30145;48.874;10.186;2024-02-26T05:47:06;8.13;;;6.20;;
44438;SDS011;30145;48.874;10.186;2024-02-26T05:49:34;8.70;;;5.53;;
44438;SDS011;30145;48.874;10.186;2024-02-26T05:52:01;9.03;;;6.50;;
44438;SDS011;30145;48.874;10.186;2024-02-26T05:54:28;9.30;;;5.50;;
44438;SDS011;30145;48.874;10.186;2024-02-26T05:56:55;7.27;;;5.10;;
44438;SDS011;30145;48.874;10.186;2024-02-26T05:59:22;11.27;;;7.27;;
44438;SDS011;30145;48.874;10.186;2024-02-26T06:01:49;8.37;;;6.17;;
44438;SDS011;30145;48.874;10.186;2024-02-26T06:04:16;9.93;;;6.10;;
44438;SDS011;30145;48.874;10.186;2024-02-26T06:06:44;10.40;;;6.90;;
44438;SDS011;30145;48.874;10.186;2024-02-26T06:09:12;8.37;;;6.40;;
44438;SDS011;30145;48.874;10.186;2024-02-26T06:11:39;16.20;;;9.57;;
44438;SDS011;30145;48.874;10.186;2024-02-26T06:14:06;10.63;;;7.20;;
44438;SDS011;30145;48.874;10.186;2024-02-26T06:16:33;10.63;;;6.83;;
44438;SDS011;30145;48.874;10.186;2024-02-26T06:19:01;10.37;;;6.77;;
44438;SDS011;30145;48.874;10.186;2024-02-26T06:21:28;8.57;;;6.17;;
44438;SDS011;30145;48.874;10.186;2024-02-26T06:23:55;10.57;;;6.47;;
44438;SDS011;30145;48.874;10.186;2024-02-26T06:26:22;7.50;;;5.73;;
44438;SDS011;30145;48.874;10.186;2024-02-26T06:28:49;9.33;;;6.53;;
44438;SDS011;30145;48.874;10.186;2024-02-26T06:31:19;9.53;;;6.07;;
44438;SDS011;30145;48.874;10.186;2024-02-26T06:33:47;9.23;;;6.70;;
44438;SDS011;30145;48.874;10.186;2024-02-26T06:36:15;8.40;;;6.00;;
44438;SDS011;30145;48.874;10.186;2024-02-26T06:38:42;9.20;;;6.23;;
44438;SDS011;30145;48.874;10.186;2024-02-26T06:41:09;9.80;;;6.50;;
44438;SDS011;30145;48.874;10.186;2024-02-26T06:43:36;9.63;;;7.63;;
44438;SDS011;30145;48.874;10.186;2024-02-26T06:46:03;12.40;;;8.67;;
44438;SDS011;30145;48.874;10.186;2024-02-26T06:48:30;10.20;;;6.93;;
44438;SDS011;30145;48.874;10.186;2024-02-26T06:50:57;9.93;;;7.53;;
44438;SDS011;30145;48.874;10.186;2024-02-26T06:53:24;7.77;;;5.97;;
44438;SDS011;30145;48.874;10.186;2024-02-26T06:55:52;12.37;;;7.63;;
44438;SDS011;30145;48.874;10.186;2024-02-26T06:58:19;9.90;;;7.07;;
44438;SDS011;30145;48.874;10.186;2024-02-26T07:00:46;10.70;;;8.27;;
44438;SDS011;30145;48.874;10.186;2024-02-26T07:03:14;11.47;;;7.83;;
44438;SDS011;30145;48.874;10.186;2024-02-26T07:05:41;17.57;;;12.33;;
44438;SDS011;30145;48.874;10.186;2024-02-26T07:08:08;13.03;;;9.53;;
44438;SDS011;30145;48.874;10.186;2024-02-26T07:10:37;10.53;;;7.03;;
44438;SDS011;30145;48.874;10.186;2024-02-26T07:13:04;10.87;;;6.83;;
44438;SDS011;30145;48.874;10.186;2024-02-26T07:15:31;16.60;;;8.83;;
44438;SDS011;30145;48.874;10.186;2024-02-26T07:17:59;11.53;;;8.20;;
44438;SDS011;30145;48.874;10.186;2024-02-26T07:20:30;10.87;;;7.93;;
44438;SDS011;30145;48.874;10.186;2024-02-26T07:22:57;8.17;;;6.27;;
44438;SDS011;30145;48.874;10.186;2024-02-26T07:25:24;8.83;;;6.93;;
44438;SDS011;30145;48.874;10.186;2024-02-26T07:27:51;8.57;;;6.27;;
44438;SDS011;30145;48.874;10.186;2024-02-26T07:30:18;9.03;;;5.87;;
44438;SDS011;30145;48.874;10.186;2024-02-26T07:32:46;12.40;;;6.23;;
44438;SDS011;30145;48.874;10.186;2024-02-26T07:35:15;10.57;;;6.43;;
44438;SDS011;30145;48.874;10.186;2024-02-26T07:37:44;11.27;;;6.87;;
44438;SDS011;30145;48.874;10.186;2024-02-26T07:40:11;8.80;;;6.30;;
44438;SDS011;30145;48.874;10.186;2024-02-26T07:42:38;8.90;;;6.20;;
44438;SDS011;30145;48.874;10.186;2024-02-26T07:45:06;9.43;;;6.17;;
44438;SDS011;30145;48.874;10.186;2024-02-26T07:47:33;8.33;;;6.23;;
44438;SDS011;30145;48.874;10.186;2024-02-26T07:50:02;11.13;;;5.90;;
44438;SDS011;30145;48.874;10.186;2024-02-26T07:52:29;9.47;;;6.60;;
44438;SDS011;30145;48.874;10.186;2024-02-26T07:54:56;8.93;;;6.00;;
44438;SDS011;30145;48.874;10.186;2024-02-26T07:57:23;8.23;;;5.77;;
44438;SDS011;30145;48.874;10.186;2024-02-26T07:59:50;8.53;;;5.60;;
44438;SDS011;30145;48.874;10.186;2024-02-26T08:02:17;8.57;;;5.60;;
44438;SDS011;30145;48.874;10.186;2024-02-26T08:04:44;8.80;;;5.53;;
44438;SDS011;30145;48.874;10.186;2024-02-26T08:07:11;7.57;;;5.77;;
44438;SDS011;30145;48.874;10.186;2024-02-26T08:09:38;7.60;;;5.80;;
44438;SDS011;30145;48.874;10.186;2024-02-26T08:12:06;8.40;;;6.00;;
44438;SDS011;30145;48.874;10.186;2024-02-26T08:14:33;8.53;;;6.10;;
44438;SDS011;30145;48.874;10.186;2024-02-26T08:17:00;9.03;;;6.20;;
44438;SDS011;30145;48.874;10.186;2024-02-26T08:19:27;7.33;;;6.00;;
44438;SDS011;30145;48.874;10.186;2024-02-26T08:21:54;7.87;;;5.93;;
44438;SDS011;30145;48.874;10.186;2024-02-26T08:24:22;7.10;;;5.80;;
44438;SDS011;30145;48.874;10.186;2024-02-26T08:26:49;8.33;;;5.90;;
44438;SDS011;30145;48.874;10.186;2024-02-26T08:29:16;9.53;;;6.07;;
44438;SDS011;30145;48.874;10.186;2024-02-26T08:31:44;7.50;;;5.77;;
44438;SDS011;30145;48.874;10.186;2024-02-26T08:34:11;8.13;;;6.10;;
44438;SDS011;30145;48.874;10.186;2024-02-26T08:36:38;7.97;;;5.77;;
44438;SDS011;30145;48.874;10.186;2024-02-26T08:39:05;8.63;;;6.50;;
44438;SDS011;30145;48.874;10.186;2024-02-26T08:41:32;8.50;;;6.07;;
44438;SDS011;30145;48.874;10.186;2024-02-26T08:43:59;8.60;;;6.50;;
44438;SDS011;30145;48.874;10.186;2024-02-26T08:46:26;8.53;;;6.90;;
44438;SDS011;30145;48.874;10.186;2024-02-26T08:48:53;9.40;;;6.73;;
44438;SDS011;30145;48.874;10.186;2024-02-26T08:51:20;11.00;;;6.87;;
44438;SDS011;30145;48.874;10.186;2024-02-26T08:53:47;9.07;;;6.70;;
44438;SDS011;30145;48.874;10.186;2024-02-26T08:56:15;9.53;;;7.00;;
44438;SDS011;30145;48.874;10.186;2024-02-26T08:58:43;11.73;;;7.33;;
44438;SDS011;30145;48.874;10.186;2024-02-26T09:01:10;9.60;;;7.57;;
44438;SDS011;30145;48.874;10.186;2024-02-26T09:03:37;10.13;;;6.73;;
44438;SDS011;30145;48.874;10.186;2024-02-26T09:06:05;10.97;;;7.33;;
44438;SDS011;30145;48.874;10.186;2024-02-26T09:08:33;10.03;;;6.17;;
44438;SDS011;30145;48.874;10.186;2024-02-26T09:11:02;9.43;;;6.20;;
44438;SDS011;30145;48.874;10.186;2024-02-26T09:13:30;8.97;;;6.57;;
44438;SDS011;30145;48.874;10.186;2024-02-26T09:15:57;9.83;;;7.40;;
44438;SDS011;30145;48.874;10.186;2024-02-26T09:18:25;7.40;;;5.80;;
44438;SDS011;30145;48.874;10.186;2024-02-26T09:20:52;8.07;;;6.27;;
44438;SDS011;30145;48.874;10.186;2024-02-26T09:23:19;10.47;;;8.97;;
44438;SDS011;30145;48.874;10.186;2024-02-26T09:25:46;10.37;;;8.93;;
44438;SDS011;30145;48.874;10.186;2024-02-26T09:28:13;10.77;;;8.00;;
44438;SDS011;30145;48.874;10.186;2024-02-26T09:30:44;15.13;;;11.60;;
44438;SDS011;30145;48.874;10.186;2024-02-26T09:33:11;9.73;;;6.70;;
44438;SDS011;30145;48.874;10.186;2024-02-26T09:35:40;9.53;;;7.03;;
44438;SDS011;30145;48.874;10.186;2024-02-26T09:38:07;10.47;;;6.10;;
44438;SDS011;30145;48.874;10.186;2024-02-26T09:40:35;13.17;;;8.77;;
44438;SDS011;30145;48.874;10.186;2024-02-26T09:43:04;9.60;;;6.03;;
44438;SDS011;30145;48.874;10.186;2024-02-26T09:45:32;8.60;;;6.37;;
44438;SDS011;30145;48.874;10.186;2024-02-26T09:47:59;7.87;;;5.60;;
44438;SDS011;30145;48.874;10.186;2024-02-26T09:50:27;7.53;;;5.90;;
44438;SDS011;30145;48.874;10.186;2024-02-26T09:52:54;12.70;;;6.13;;
44438;SDS011;30145;48.874;10.186;2024-02-26T09:55:21;7.63;;;5.87;;
44438;SDS011;30145;48.874;10.186;2024-02-26T09:57:48;7.03;;;5.50;;
44438;SDS011;30145;48.874;10.186;2024-02-26T10:00:18;8.53;;;6.57;;
44438;SDS011;30145;48.874;10.186;2024-02-26T10:02:46;10.27;;;6.57;;
44438;SDS011;30145;48.874;10.186;2024-02-26T10:05:17;7.73;;;5.30;;
44438;SDS011;30145;48.874;10.186;2024-02-26T10:07:45;8.73;;;5.50;;
44438;SDS011;30145;48.874;10.186;2024-02-26T10:10:13;7.87;;;5.50;;
44438;SDS011;30145;48.874;10.186;2024-02-26T10:12:41;7.73;;;5.50;;
44438;SDS011;30145;48.874;10.186;2024-02-26T10:15:08;8.10;;;5.70;;
44438;SDS011;30145;48.874;10.186;2024-02-26T10:17:35;7.37;;;6.07;;
44438;SDS011;30145;48.874;10.186;2024-02-26T10:20:22;8.73;;;6.33;;
44438;SDS011;30145;48.874;10.186;2024-02-26T10:22:50;7.40;;;6.17;;
44438;SDS011;30145;48.874;10.186;2024-02-26T10:25:18;9.37;;;5.53;;
44438;SDS011;30145;48.874;10.186;2024-02-26T10:27:46;6.83;;;5.47;;
44438;SDS011;30145;48.874;10.186;2024-02-26T10:30:18;7.93;;;5.97;;
44438;SDS011;30145;48.874;10.186;2024-02-26T10:32:49;7.30;;;5.17;;
44438;SDS011;30145;48.874;10.186;2024-02-26T10:35:16;6.53;;;5.47;;
44438;SDS011;30145;48.874;10.186;2024-02-26T10:37:44;8.23;;;6.00;;
44438;SDS011;30145;48.874;10.186;2024-02-26T10:40:12;7.93;;;5.47;;
44438;SDS011;30145;48.874;10.186;2024-02-26T10:42:43;7.23;;;5.47;;
44438;SDS011;30145;48.874;10.186;2024-02-26T10:45:11;8.73;;;5.73;;
44438;SDS011;30145;48.874;10.186;2024-02-26T10:47:40;7.07;;;5.57;;
44438;SDS011;30145;48.874;10.186;2024-02-26T10:50:08;6.90;;;5.03;;
44438;SDS011;30145;48.874;10.186;2024-02-26T10:52:36;8.00;;;5.43;;
44438;SDS011;30145;48.874;10.186;2024-02-26T10:55:04;7.37;;;4.63;;
44438;SDS011;30145;48.874;10.186;2024-02-26T10:57:38;7.73;;;5.70;;
44438;SDS011;30145;48.874;10.186;2024-02-26T11:00:06;7.23;;;4.90;;
44438;SDS011;30145;48.874;10.186;2024-02-26T11:02:37;5.63;;;5.03;;
44438;SDS011;30145;48.874;10.186;2024-02-26T11:05:05;6.10;;;4.20;;
44438;SDS011;30145;48.874;10.186;2024-02-26T11:07:36;5.37;;;4.40;;
44438;SDS011;30145;48.874;10.186;2024-02-26T11:10:04;6.57;;;5.00;;
44438;SDS011;30145;48.874;10.186;2024-02-26T11:12:35;6.23;;;5.13;;
44438;SDS011;30145;48.874;10.186;2024-02-26T11:15:04;5.67;;;4.60;;
44438;SDS011;30145;48.874;10.186;2024-02-26T11:17:32;7.00;;;4.90;;
44438;SDS011;30145;48.874;10.186;2024-02-26T11:20:02;5.70;;;4.33;;
44438;SDS011;30145;48.874;10.186;2024-02-26T11:22:29;5.33;;;4.20;;
44438;SDS011;30145;48.874;10.186;2024-02-26T11:24:56;6.33;;;4.23;;
44438;SDS011;30145;48.874;10.186;2024-02-26T11:27:25;6.03;;;4.13;;
44438;SDS011;30145;48.874;10.186;2024-02-26T11:29:57;4.67;;;4.17;;
44438;SDS011;30145;48.874;10.186;2024-02-26T11:32:27;4.80;;;4.10;;
44438;SDS011;30145;48.874;10.186;2024-02-26T11:35:00;5.23;;;4.03;;
44438;SDS011;30145;48.874;10.186;2024-02-26T11:37:27;6.57;;;4.80;;
44438;SDS011;30145;48.874;10.186;2024-02-26T11:39:56;4.67;;;3.33;;
44438;SDS011;30145;48.874;10.186;2024-02-26T11:42:26;5.63;;;3.90;;
44438;SDS011;30145;48.874;10.186;2024-02-26T11:44:53;5.00;;;3.17;;
44438;SDS011;30145;48.874;10.186;2024-02-26T11:47:22;4.93;;;3.00;;
44438;SDS011;30145;48.874;10.186;2024-02-26T11:49:51;3.70;;;3.10;;
44438;SDS011;30145;48.874;10.186;2024-02-26T11:52:20;3.87;;;3.33;;
44438;SDS011;30145;48.874;10.186;2024-02-26T11:54:48;3.30;;;2.97;;
44438;SDS011;30145;48.874;10.186;2024-02-26T11:57:21;6.50;;;3.73;;
44438;SDS011;30145;48.874;10.186;2024-02-26T12:02:43;6.43;;;3.70;;
44438;SDS011;30145;48.874;10.186;2024-02-26T12:05:20;5.07;;;3.60;;
44438;SDS011;30145;48.874;10.186;2024-02-26T12:07:55;6.07;;;4.13;;
44438;SDS011;30145;48.874;10.186;2024-02-26T12:10:39;6.43;;;4.93;;
44438;SDS011;30145;48.874;10.186;2024-02-26T12:15:39;5.73;;;4.30;;
44438;SDS011;30145;48.874;10.186;2024-02-26T12:18:18;6.43;;;4.17;;
44438;SDS011;30145;48.874;10.186;2024-02-26T12:20:59;6.23;;;4.40;;
44438;SDS011;30145;48.874;10.186;2024-02-26T12:23:38;6.40;;;4.20;;
44438;SDS011;30145;48.874;10.186;2024-02-26T12:26:10;5.40;;;3.63;;
44438;SDS011;30145;48.874;10.186;2024-02-26T12:28:39;5.43;;;3.53;;
44438;SDS011;30145;48.874;10.186;2024-02-26T12:33:42;3.77;;;3.20;;
44438;SDS011;30145;48.874;10.186;2024-02-26T12:36:09;5.50;;;3.97;;
44438;SDS011;30145;48.874;10.186;2024-02-26T12:38:36;3.83;;;3.43;;
44438;SDS011;30145;48.874;10.186;2024-02-26T12:41:06;4.13;;;3.20;;
44438;SDS011;30145;48.874;10.186;2024-02-26T12:43:33;4.07;;;3.13;;
44438;SDS011;30145;48.874;10.186;2024-02-26T12:46:02;3.30;;;3.00;;
44438;SDS011;30145;48.874;10.186;2024-02-26T12:48:30;3.93;;;2.63;;
44438;SDS011;30145;48.874;10.186;2024-02-26T12:50:59;3.57;;;2.67;;
44438;SDS011;30145;48.874;10.186;2024-02-26T12:53:29;3.97;;;2.60;;
44438;SDS011;30145;48.874;10.186;2024-02-26T12:55:57;3.57;;;2.80;;
44438;SDS011;30145;48.874;10.186;2024-02-26T12:58:27;6.17;;;3.57;;
44438;SDS011;30145;48.874;10.186;2024-02-26T13:00:56;4.30;;;2.63;;
44438;SDS011;30145;48.874;10.186;2024-02-26T13:03:27;3.50;;;2.43;;
44438;SDS011;30145;48.874;10.186;2024-02-26T13:05:55;4.73;;;3.03;;
44438;SDS011;30145;48.874;10.186;2024-02-26T13:08:23;3.63;;;2.70;;
44438;SDS011;30145;48.874;10.186;2024-02-26T13:10:51;3.93;;;2.90;;
44438;SDS011;30145;48.874;10.186;2024-02-26T13:13:19;4.50;;;3.50;;
44438;SDS011;30145;48.874;10.186;2024-02-26T13:15:48;4.10;;;3.20;;
44438;SDS011;30145;48.874;10.186;2024-02-26T13:18:17;4.90;;;3.17;;
44438;SDS011;30145;48.874;10.186;2024-02-26T13:20:45;3.67;;;2.80;;
44438;SDS011;30145;48.874;10.186;2024-02-26T13:23:13;4.90;;;3.27;;
44438;SDS011;30145;48.874;10.186;2024-02-26T13:25:40;4.03;;;2.67;;
44438;SDS011;30145;48.874;10.186;2024-02-26T13:28:17;5.43;;;3.10;;
44438;SDS011;30145;48.874;10.186;2024-02-26T13:30:52;5.77;;;3.17;;
44438;SDS011;30145;48.874;10.186;2024-02-26T13:33:25;4.80;;;3.00;;
44438;SDS011;30145;48.874;10.186;2024-02-26T13:35:56;4.30;;;2.90;;
44438;SDS011;30145;48.874;10.186;2024-02-26T13:38:24;4.43;;;2.90;;
44438;SDS011;30145;48.874;10.186;2024-02-26T13:40:52;3.50;;;2.70;;
44438;SDS011;30145;48.874;10.186;2024-02-26T13:43:19;5.37;;;3.50;;
44438;SDS011;30145;48.874;10.186;2024-02-26T13:45:47;5.53;;;3.90;;
44438;SDS011;30145;48.874;10.186;2024-02-26T13:48:14;4.70;;;3.33;;
44438;SDS011;30145;48.874;10.186;2024-02-26T13:50:42;3.27;;;2.70;;
44438;SDS011;30145;48.874;10.186;2024-02-26T13:53:12;8.47;;;6.77;;
44438;SDS011;30145;48.874;10.186;2024-02-26T13:55:40;8.43;;;5.00;;
44438;SDS011;30145;48.874;10.186;2024-02-26T13:58:11;6.60;;;3.70;;
44438;SDS011;30145;48.874;10.186;2024-02-26T14:00:40;4.43;;;2.97;;
44438;SDS011;30145;48.874;10.186;2024-02-26T14:03:08;4.73;;;3.20;;
44438;SDS011;30145;48.874;10.186;2024-02-26T14:05:36;3.83;;;2.93;;
44438;SDS011;30145;48.874;10.186;2024-02-26T14:08:03;2.97;;;2.60;;
44438;SDS011;30145;48.874;10.186;2024-02-26T14:10:30;5.03;;;2.70;;
44438;SDS011;30145;48.874;10.186;2024-02-26T14:12:58;6.00;;;2.90;;
44438;SDS011;30145;48.874;10.186;2024-02-26T14:15:27;5.27;;;2.60;;
44438;SDS011;30145;48.874;10.186;2024-02-26T14:17:55;3.40;;;3.00;;
44438;SDS011;30145;48.874;10.186;2024-02-26T14:20:23;6.30;;;3.70;;
44438;SDS011;30145;48.874;10.186;2024-02-26T14:22:51;4.27;;;3.23;;
44438;SDS011;30145;48.874;10.186;2024-02-26T14:25:21;5.60;;;3.40;;
44438;SDS011;30145;48.874;10.186;2024-02-26T14:27:49;3.77;;;3.30;;
44438;SDS011;30145;48.874;10.186;2024-02-26T14:30:16;4.50;;;2.97;;
44438;SDS011;30145;48.874;10.186;2024-02-26T14:32:43;3.83;;;3.00;;
44438;SDS011;30145;48.874;10.186;2024-02-26T14:35:10;4.07;;;3.10;;
44438;SDS011;30145;48.874;10.186;2024-02-26T14:37:39;4.47;;;3.50;;
44438;SDS011;30145;48.874;10.186;2024-02-26T14:40:06;4.43;;;2.87;;
44438;SDS011;30145;48.874;10.186;2024-02-26T14:42:35;6.07;;;3.60;;
44438;SDS011;30145;48.874;10.186;2024-02-26T14:45:02;26.43;;;13.47;;